createdAt,value
2023-05-14T00:01:03.030Z,12.67
2023-05-14T00:04:06.519Z,12.65
2023-05-14T00:07:10.819Z,12.63
2023-05-14T00:10:13.610Z,12.62
2023-05-14T00:13:16.363Z,12.64
2023-05-14T00:16:19.140Z,12.63
2023-05-14T00:19:21.913Z,12.58
2023-05-14T00:22:26.043Z,12.57
2023-05-14T00:25:29.235Z,12.49
2023-05-14T00:28:31.930Z,12.44
2023-05-14T00:31:34.660Z,12.34
2023-05-14T00:34:37.384Z,12.31
2023-05-14T00:37:41.510Z,12.30
2023-05-14T00:40:46.040Z,12.25
2023-05-14T00:43:48.900Z,12.25
2023-05-14T00:46:51.811Z,12.26
2023-05-14T00:49:54.548Z,12.25
2023-05-14T00:52:58.867Z,12.23
2023-05-14T00:56:01.845Z,12.20
2023-05-14T00:59:04.582Z,12.17
2023-05-14T01:02:07.494Z,12.12
2023-05-14T01:05:11.037Z,12.04
2023-05-14T01:08:22.725Z,11.99
2023-05-14T01:11:30.193Z,11.97
2023-05-14T01:14:53.538Z,11.93
2023-05-14T01:18:05.595Z,11.91
2023-05-14T01:21:21.186Z,11.89
2023-05-14T01:24:25.588Z,11.84
2023-05-14T01:27:48.741Z,11.75
2023-05-14T01:30:58.148Z,11.66
2023-05-14T01:34:02.993Z,11.61
2023-05-14T01:37:07.553Z,11.53
2023-05-14T01:40:12.389Z,11.46
2023-05-14T01:43:16.097Z,11.41
2023-05-14T01:46:19.293Z,11.40
2023-05-14T01:49:22.009Z,11.33
2023-05-14T01:52:24.728Z,11.31
2023-05-14T01:55:28.845Z,11.25
2023-05-14T01:58:31.610Z,11.27
2023-05-14T02:01:34.465Z,11.14
2023-05-14T02:04:37.189Z,11.07
2023-05-14T02:07:40.393Z,11.05
2023-05-14T02:10:44.527Z,11.05
2023-05-14T02:13:47.241Z,11.08
2023-05-14T02:16:50.986Z,11.07
2023-05-14T02:19:53.816Z,11.06
2023-05-14T02:22:56.600Z,11.00
2023-05-14T02:26:00.640Z,10.98
2023-05-14T02:29:03.427Z,10.96
2023-05-14T02:32:06.790Z,10.93
2023-05-14T02:35:10.404Z,10.90
2023-05-14T02:38:13.044Z,10.89
2023-05-14T02:41:17.120Z,10.90
2023-05-14T02:44:19.892Z,10.92
2023-05-14T02:47:22.765Z,10.95
2023-05-14T02:50:25.833Z,10.90
2023-05-14T02:53:28.741Z,10.93
2023-05-14T02:56:32.873Z,10.95
2023-05-14T02:59:35.979Z,10.98
2023-05-14T03:02:39.577Z,11.02
2023-05-14T03:05:42.641Z,11.01
2023-05-14T03:08:45.880Z,11.06
2023-05-14T03:11:51.540Z,11.10
2023-05-14T03:14:54.227Z,11.09
2023-05-14T03:17:57.041Z,11.13
2023-05-14T03:20:59.886Z,11.13
2023-05-14T03:24:02.641Z,11.16
2023-05-14T03:27:07.080Z,11.21
2023-05-14T03:30:11.749Z,11.24
2023-05-14T03:33:15.209Z,11.27
2023-05-14T03:36:17.915Z,11.32
2023-05-14T03:39:21.127Z,11.32
2023-05-14T03:42:25.331Z,11.35
2023-05-14T03:45:28.713Z,11.38
2023-05-14T03:48:31.504Z,11.41
2023-05-14T03:51:34.243Z,11.46
2023-05-14T03:54:38.126Z,11.43
2023-05-14T03:57:42.149Z,11.38
2023-05-14T04:00:44.961Z,11.34
2023-05-14T04:03:47.851Z,11.34
2023-05-14T04:06:50.767Z,11.39
2023-05-14T04:09:53.476Z,11.37
2023-05-14T04:12:57.678Z,11.35
2023-05-14T04:16:00.596Z,11.39
2023-05-14T04:19:04.869Z,11.41
2023-05-14T04:22:07.586Z,11.39
2023-05-14T04:25:10.659Z,11.39
2023-05-14T04:28:14.983Z,11.41
2023-05-14T04:31:17.694Z,11.44
2023-05-14T04:34:20.449Z,11.49
2023-05-14T04:37:23.284Z,11.50
2023-05-14T04:40:26.159Z,11.50
2023-05-14T04:43:30.442Z,11.52
2023-05-14T04:46:33.243Z,11.52
2023-05-14T04:49:36.003Z,11.56
2023-05-14T04:52:39.134Z,11.56
2023-05-14T04:55:42.073Z,11.58
2023-05-14T04:58:46.135Z,11.59
2023-05-14T05:01:48.923Z,11.62
2023-05-14T05:04:51.759Z,11.63
2023-05-14T05:07:54.704Z,11.56
2023-05-14T05:10:57.350Z,11.51
2023-05-14T05:14:01.613Z,11.57
2023-05-14T05:17:04.563Z,11.60
2023-05-14T05:20:09.973Z,11.58
2023-05-14T05:23:12.731Z,11.61
2023-05-14T05:26:15.744Z,11.65
2023-05-14T05:29:19.829Z,11.70
2023-05-14T05:32:22.510Z,11.76
2023-05-14T05:35:25.243Z,11.75
2023-05-14T05:38:27.944Z,11.80
2023-05-14T05:41:31.045Z,11.86
2023-05-14T05:44:35.092Z,11.91
2023-05-14T05:47:37.861Z,12.02
2023-05-14T05:50:40.592Z,12.08
2023-05-14T05:53:43.438Z,12.12
2023-05-14T05:56:46.224Z,12.15
2023-05-14T05:59:50.392Z,12.09
2023-05-14T06:02:53.313Z,12.09
2023-05-14T06:05:56.148Z,12.06
2023-05-14T06:08:58.839Z,12.13
2023-05-14T06:12:01.554Z,12.17
2023-05-14T06:15:06.664Z,12.23
2023-05-14T06:18:09.488Z,12.26
2023-05-14T06:21:12.151Z,12.28
2023-05-14T06:24:14.885Z,12.36
2023-05-14T06:27:17.678Z,12.42
2023-05-14T06:30:22.207Z,12.42
2023-05-14T06:33:30.937Z,12.47
2023-05-14T06:36:33.835Z,12.52
2023-05-14T06:39:36.561Z,12.52
2023-05-14T06:42:39.418Z,12.58
2023-05-14T06:45:43.473Z,12.65
2023-05-14T06:48:47.208Z,12.69
2023-05-14T06:51:50.018Z,12.74
2023-05-14T06:54:52.711Z,12.82
2023-05-14T06:57:55.405Z,12.86
2023-05-14T07:00:59.633Z,12.89
2023-05-14T07:04:02.835Z,12.96
2023-05-14T07:07:06.098Z,12.93
2023-05-14T07:10:09.581Z,13.02
2023-05-14T07:13:12.319Z,13.06
2023-05-14T07:16:16.441Z,13.12
2023-05-14T07:19:19.254Z,13.17
2023-05-14T07:22:22.066Z,13.20
2023-05-14T07:25:24.787Z,13.23
2023-05-14T07:28:27.563Z,13.23
2023-05-14T07:31:31.904Z,13.25
2023-05-14T07:34:34.674Z,13.28
2023-05-14T07:37:37.457Z,13.35
2023-05-14T07:40:40.145Z,13.44
2023-05-14T07:43:43.090Z,13.48
2023-05-14T07:46:47.376Z,13.66
2023-05-14T07:49:50.299Z,13.72
2023-05-14T07:52:53.064Z,13.84
2023-05-14T07:55:55.881Z,13.90
2023-05-14T07:58:58.738Z,13.92
2023-05-14T08:02:02.838Z,14.11
2023-05-14T08:05:06.175Z,14.30
2023-05-14T08:08:08.899Z,14.48
2023-05-14T08:11:11.775Z,14.70
2023-05-14T08:14:14.401Z,14.95
2023-05-14T08:17:18.568Z,15.06
2023-05-14T08:20:21.455Z,15.06
2023-05-14T08:23:24.262Z,15.41
2023-05-14T08:26:26.931Z,15.70
2023-05-14T08:29:29.851Z,16.01
2023-05-14T08:32:33.876Z,16.16
2023-05-14T08:35:36.542Z,16.10
2023-05-14T08:38:39.203Z,16.08
2023-05-14T08:41:42.263Z,16.12
2023-05-14T08:44:49.837Z,16.17
2023-05-14T08:47:54.192Z,16.20
2023-05-14T08:50:57.179Z,16.33
2023-05-14T08:54:00.372Z,16.48
2023-05-14T08:57:04.279Z,16.48
2023-05-14T09:00:11.577Z,16.68
2023-05-14T09:03:16.239Z,16.89
2023-05-14T09:06:19.855Z,17.17
2023-05-14T09:09:23.563Z,17.44
2023-05-14T09:12:26.493Z,17.61
2023-05-14T09:15:30.584Z,17.61
2023-05-14T09:18:37.166Z,17.49
2023-05-14T09:21:40.235Z,17.37
2023-05-14T09:24:44.083Z,17.31
2023-05-14T09:27:50.725Z,17.58
2023-05-14T09:30:53.434Z,17.53
2023-05-14T09:33:57.548Z,17.37
2023-05-14T09:37:01.821Z,17.23
2023-05-14T09:40:08.989Z,17.05
2023-05-14T09:43:11.735Z,16.87
2023-05-14T09:46:14.582Z,16.76
2023-05-14T09:49:19.092Z,16.77
2023-05-14T09:52:21.824Z,17.24
2023-05-14T09:55:24.733Z,17.41
2023-05-14T09:58:27.581Z,17.33
2023-05-14T10:01:33.013Z,17.24
2023-05-14T10:04:38.580Z,17.17
2023-05-14T10:07:47.707Z,17.06
2023-05-14T10:10:52.377Z,17.03
2023-05-14T10:14:01.679Z,16.98
2023-05-14T10:17:07.097Z,17.02
2023-05-14T10:20:16.846Z,17.02
2023-05-14T10:23:19.908Z,17.10
2023-05-14T10:26:24.148Z,17.18
2023-05-14T10:29:34.792Z,17.19
2023-05-14T10:32:37.974Z,17.29
2023-05-14T10:35:57.756Z,17.38
2023-05-14T10:39:05.259Z,17.44
2023-05-14T10:42:09.175Z,17.64
2023-05-14T10:45:13.940Z,17.68
2023-05-14T10:48:17.010Z,17.60
2023-05-14T10:51:23.001Z,17.56
2023-05-14T10:54:28.811Z,17.32
2023-05-14T10:57:33.740Z,17.20
2023-05-14T11:00:36.917Z,17.17
2023-05-14T11:03:42.266Z,17.66
2023-05-14T11:06:48.173Z,18.23
2023-05-14T11:09:52.368Z,18.70
2023-05-14T11:12:55.171Z,18.86
2023-05-14T11:16:02.280Z,19.22
2023-05-14T11:19:12.196Z,19.67
2023-05-14T11:22:16.319Z,19.76
2023-05-14T11:25:19.055Z,19.69
2023-05-14T11:28:22.853Z,19.34
2023-05-14T11:31:26.599Z,19.20
2023-05-14T11:34:29.804Z,19.47
2023-05-14T11:37:33.893Z,19.81
2023-05-14T11:40:36.660Z,20.20
2023-05-14T11:43:39.424Z,20.29
2023-05-14T11:46:42.209Z,20.25
2023-05-14T11:49:45.507Z,20.37
2023-05-14T11:52:50.831Z,20.47
2023-05-14T11:55:54.385Z,20.48
2023-05-14T11:58:58.408Z,20.18
2023-05-14T12:02:01.583Z,19.74
2023-05-14T12:05:07.147Z,19.53
2023-05-14T12:08:24.385Z,19.79
2023-05-14T12:12:17.175Z,19.65
2023-05-14T12:15:21.939Z,19.24
2023-05-14T12:18:26.288Z,18.90
2023-05-14T12:21:31.504Z,18.65
2023-05-14T12:24:35.652Z,18.41
2023-05-14T12:27:38.962Z,18.29
2023-05-14T12:30:41.870Z,18.22
2023-05-14T12:33:44.562Z,18.08
2023-05-14T12:36:47.905Z,18.01
2023-05-14T12:39:52.005Z,17.98
2023-05-14T12:42:56.690Z,17.97
2023-05-14T12:45:59.599Z,17.99
2023-05-14T12:49:02.243Z,17.96
2023-05-14T12:52:22.682Z,17.92
2023-05-14T12:55:29.596Z,18.20
2023-05-14T12:58:32.266Z,18.52
2023-05-14T13:01:35.022Z,18.76
2023-05-14T13:04:38.452Z,18.89
2023-05-14T13:07:41.582Z,18.84
2023-05-14T13:10:45.716Z,18.73
2023-05-14T13:13:48.444Z,18.59
2023-05-14T13:16:51.176Z,18.90
2023-05-14T13:19:53.915Z,19.39
2023-05-14T13:22:56.599Z,19.73
2023-05-14T13:26:00.678Z,19.70
2023-05-14T13:29:03.442Z,19.72
2023-05-14T13:32:06.665Z,19.85
2023-05-14T13:35:10.160Z,19.80
2023-05-14T13:38:12.864Z,19.84
2023-05-14T13:41:16.870Z,19.75
2023-05-14T13:44:19.735Z,19.66
2023-05-14T13:47:22.447Z,19.30
2023-05-14T13:50:25.207Z,19.18
2023-05-14T13:53:28.256Z,19.15
2023-05-14T13:56:32.332Z,19.02
2023-05-14T13:59:35.180Z,18.90
2023-05-14T14:02:37.889Z,18.76
2023-05-14T14:05:40.620Z,18.75
2023-05-14T14:08:43.380Z,18.93
2023-05-14T14:11:47.712Z,19.39
2023-05-14T14:14:50.983Z,19.89
2023-05-14T14:17:53.776Z,20.26
2023-05-14T14:20:56.443Z,20.58
2023-05-14T14:23:59.195Z,20.58
2023-05-14T14:27:03.277Z,20.23
2023-05-14T14:30:08.210Z,20.12
2023-05-14T14:33:11.295Z,20.28
2023-05-14T14:36:14.140Z,20.46
2023-05-14T14:39:16.901Z,20.52
2023-05-14T14:42:21.006Z,20.48
2023-05-14T14:45:24.218Z,20.23
2023-05-14T14:48:28.390Z,20.12
2023-05-14T14:51:31.358Z,20.03
2023-05-14T14:54:34.249Z,20.21
2023-05-14T14:57:39.725Z,20.43
2023-05-14T15:00:42.704Z,20.55
2023-05-14T15:03:45.642Z,20.55
2023-05-14T15:06:48.294Z,20.55
2023-05-14T15:09:50.973Z,20.41
2023-05-14T15:12:55.040Z,20.53
2023-05-14T15:15:57.685Z,20.72
2023-05-14T15:19:00.449Z,20.93
2023-05-14T15:22:03.450Z,21.07
2023-05-14T15:25:06.756Z,21.28
2023-05-14T15:28:10.907Z,21.46
2023-05-14T15:31:13.692Z,21.50
2023-05-14T15:34:16.436Z,21.53
2023-05-14T15:37:19.188Z,21.65
2023-05-14T15:40:22.210Z,21.62
2023-05-14T15:43:26.358Z,21.57
2023-05-14T15:46:29.147Z,21.52
2023-05-14T15:49:31.899Z,21.16
2023-05-14T15:52:35.758Z,20.62
2023-05-14T15:55:38.449Z,20.13
2023-05-14T15:58:42.429Z,19.91
2023-05-14T16:01:45.233Z,19.92
2023-05-14T16:04:49.510Z,19.52
2023-05-14T16:07:52.198Z,19.29
2023-05-14T16:10:54.881Z,19.05
2023-05-14T16:13:59.388Z,18.86
2023-05-14T16:17:02.774Z,18.73
2023-05-14T16:20:06.296Z,18.58
2023-05-14T16:23:08.930Z,18.40
2023-05-14T16:26:11.804Z,18.29
2023-05-14T16:29:15.858Z,18.26
2023-05-14T16:32:18.583Z,18.41
2023-05-14T16:35:21.456Z,18.55
2023-05-14T16:38:24.222Z,18.63
2023-05-14T16:41:26.899Z,18.64
2023-05-14T16:44:30.938Z,18.64
2023-05-14T16:47:33.586Z,18.55
2023-05-14T16:50:36.242Z,18.50
2023-05-14T16:53:38.931Z,18.42
2023-05-14T16:56:41.885Z,18.27
2023-05-14T16:59:46.352Z,18.11
2023-05-14T17:02:50.898Z,17.99
2023-05-14T17:05:53.569Z,17.86
2023-05-14T17:08:56.303Z,17.76
2023-05-14T17:11:59.100Z,17.70
2023-05-14T17:15:05.487Z,17.61
2023-05-14T17:18:08.559Z,17.56
2023-05-14T17:21:11.227Z,17.53
2023-05-14T17:24:13.846Z,17.49
2023-05-14T17:27:16.875Z,17.46
2023-05-14T17:30:21.237Z,17.45
2023-05-14T17:33:23.986Z,17.38
2023-05-14T17:36:28.384Z,17.35
2023-05-14T17:39:31.120Z,17.25
2023-05-14T17:42:33.832Z,17.21
2023-05-14T17:45:50.273Z,17.12
2023-05-14T17:48:58.173Z,17.06
2023-05-14T17:52:00.920Z,17.00
2023-05-14T17:55:03.742Z,16.95
2023-05-14T17:58:06.584Z,16.86
2023-05-14T18:01:10.590Z,16.73
2023-05-14T18:04:13.422Z,16.57
2023-05-14T18:07:16.335Z,16.45
2023-05-14T18:10:19.621Z,16.33
2023-05-14T18:13:22.326Z,16.17
2023-05-14T18:16:26.479Z,16.05
2023-05-14T18:19:29.163Z,15.90
2023-05-14T18:22:32.100Z,15.78
2023-05-14T18:25:35.362Z,15.63
2023-05-14T18:28:38.154Z,15.49
2023-05-14T18:31:42.230Z,15.41
2023-05-14T18:34:44.835Z,15.38
2023-05-14T18:37:47.499Z,15.23
2023-05-14T18:40:50.306Z,15.12
2023-05-14T18:43:52.956Z,15.07
2023-05-14T18:46:57.217Z,15.00
2023-05-14T18:50:01.855Z,14.86
2023-05-14T18:53:04.778Z,14.79
2023-05-14T18:56:07.551Z,14.75
2023-05-14T18:59:10.311Z,14.66
2023-05-14T19:02:14.266Z,14.55
2023-05-14T19:05:17.054Z,14.52
2023-05-14T19:08:19.818Z,14.44
2023-05-14T19:11:22.571Z,14.39
2023-05-14T19:14:25.291Z,14.31
2023-05-14T19:17:32.714Z,14.21
2023-05-14T19:20:35.401Z,14.14
2023-05-14T19:23:38.112Z,14.04
2023-05-14T19:26:40.797Z,14.01
2023-05-14T19:29:43.482Z,13.97
2023-05-14T19:32:48.039Z,13.91
2023-05-14T19:35:51.278Z,13.87
2023-05-14T19:38:53.939Z,13.81
2023-05-14T19:41:56.664Z,13.72
2023-05-14T19:44:59.537Z,13.73
2023-05-14T19:48:03.956Z,13.65
2023-05-14T19:51:06.768Z,13.63
2023-05-14T19:54:09.951Z,13.62
2023-05-14T19:57:12.677Z,13.62
2023-05-14T20:00:15.930Z,13.62
2023-05-14T20:03:20.301Z,13.61
2023-05-14T20:06:23.167Z,13.65
2023-05-14T20:09:26.044Z,13.65
2023-05-14T20:12:28.914Z,13.66
2023-05-14T20:15:32.213Z,13.64
2023-05-14T20:18:36.459Z,13.62
2023-05-14T20:21:39.460Z,13.58
2023-05-14T20:24:42.096Z,13.59
2023-05-14T20:27:45.004Z,13.56
2023-05-14T20:30:47.912Z,13.54
2023-05-14T20:33:51.928Z,13.54
2023-05-14T20:36:54.828Z,13.50
2023-05-14T20:39:57.586Z,13.47
2023-05-14T20:43:00.254Z,13.38
2023-05-14T20:46:03.053Z,13.25
2023-05-14T20:49:07.152Z,13.20
2023-05-14T20:52:09.814Z,13.13
2023-05-14T20:55:13.241Z,13.12
2023-05-14T20:58:15.873Z,13.09
2023-05-14T21:01:18.606Z,13.07
2023-05-14T21:04:22.898Z,13.07
2023-05-14T21:07:27.060Z,13.06
2023-05-14T21:10:30.268Z,13.03
2023-05-14T21:13:32.987Z,12.98
2023-05-14T21:16:36.195Z,12.94
2023-05-14T21:19:40.563Z,12.87
2023-05-14T21:22:43.251Z,12.82
2023-05-14T21:25:45.926Z,12.81
2023-05-14T21:28:48.619Z,12.76
2023-05-14T21:31:51.320Z,12.70
2023-05-14T21:34:56.091Z,12.65
2023-05-14T21:37:58.836Z,12.65
2023-05-14T21:41:01.731Z,12.62
2023-05-14T21:44:04.395Z,12.58
2023-05-14T21:47:07.696Z,12.54
2023-05-14T21:50:13.153Z,12.49
2023-05-14T21:53:15.996Z,12.43
2023-05-14T21:56:19.384Z,12.39
2023-05-14T21:59:22.583Z,12.37
2023-05-14T22:02:25.489Z,12.35
2023-05-14T22:05:30.328Z,12.31
2023-05-14T22:08:33.058Z,12.30
2023-05-14T22:11:35.794Z,12.29
2023-05-14T22:14:38.479Z,12.22
2023-05-14T22:17:41.871Z,12.19
2023-05-14T22:20:46.068Z,12.16
2023-05-14T22:23:50.448Z,12.14
2023-05-14T22:26:53.094Z,12.14
2023-05-14T22:29:55.921Z,12.14
2023-05-14T22:32:58.621Z,12.16
2023-05-14T22:36:02.751Z,12.09
2023-05-14T22:39:05.779Z,12.06
2023-05-14T22:42:08.838Z,12.06
2023-05-14T22:45:11.760Z,12.09
2023-05-14T22:48:14.468Z,12.02
2023-05-14T22:51:18.575Z,11.91
2023-05-14T22:54:21.472Z,11.81
2023-05-14T22:57:24.139Z,11.87
2023-05-14T23:00:27.285Z,11.81
2023-05-14T23:03:30.234Z,11.74
2023-05-14T23:06:34.458Z,11.76
2023-05-14T23:09:37.097Z,11.75
2023-05-14T23:12:39.788Z,11.74
2023-05-14T23:15:42.485Z,11.75
2023-05-14T23:18:45.509Z,11.78
2023-05-14T23:21:49.604Z,11.78
2023-05-14T23:24:52.230Z,11.78
2023-05-14T23:27:54.946Z,11.71
2023-05-14T23:30:57.602Z,11.68
2023-05-14T23:34:00.268Z,11.64
2023-05-14T23:37:04.310Z,11.61
2023-05-14T23:40:08.859Z,11.60
2023-05-14T23:43:11.459Z,11.59
2023-05-14T23:46:14.099Z,11.57
2023-05-14T23:49:16.791Z,11.56
2023-05-14T23:52:20.822Z,11.60
2023-05-14T23:55:23.784Z,11.61
2023-05-14T23:58:26.867Z,11.61
